Time;durP1;ratioP1;P1;durP2;ratioP2;P2;SDS_P1;SDS_P2;PMS_P1;PMS_P2;Temp;Humidity;BMP_temperature;BMP_pressure;BME280_temperature;BME280_humidity;BME280_pressure;Samples;Min_cycle;Max_cycle;Signal;HPM_P1;HPM_P2
2021/04/27 00:01:31;;;;;;;5.33;3.50;;;6.10;74.00;;;;;;5014135;28;20537;-66
2021/04/27 00:03:58;;;;;;;3.57;2.97;;;5.90;76.30;;;;;;5013896;28;20528;-65
2021/04/27 00:06:25;;;;;;;5.73;3.50;;;5.60;76.40;;;;;;5014009;28;20437;-65
2021/04/27 00:08:52;;;;;;;3.97;2.60;;;5.50;76.60;;;;;;5013902;28;20505;-66
2021/04/27 00:11:18;;;;;;;3.63;3.30;;;5.40;77.20;;;;;;5014239;28;20552;-68
2021/04/27 00:13:45;;;;;;;3.10;2.80;;;5.30;78.00;;;;;;5013789;28;20515;-65
2021/04/27 00:16:11;;;;;;;5.40;2.93;;;5.10;77.00;;;;;;5013682;28;20437;-66
2021/04/27 00:18:38;;;;;;;5.30;3.20;;;5.10;78.20;;;;;;5013395;28;20493;-67
2021/04/27 00:21:04;;;;;;;3.60;2.93;;;5.00;78.60;;;;;;5013797;28;20461;-67
2021/04/27 00:23:33;;;;;;;5.13;3.20;;;4.90;79.90;;;;;;5013846;28;20528;-66
2021/04/27 00:25:59;;;;;;;4.80;3.73;;;5.00;80.70;;;;;;5013765;28;20537;-67
2021/04/27 00:28:26;;;;;;;10.70;5.70;;;4.90;80.80;;;;;;5014030;28;20441;-65
2021/04/27 00:30:52;;;;;;;6.40;4.83;;;4.90;80.80;;;;;;5013520;28;21324;-64
2021/04/27 00:33:19;;;;;;;8.57;4.97;;;4.90;80.50;;;;;;5013282;28;20446;-66
2021/04/27 00:35:45;;;;;;;6.63;5.53;;;4.90;81.90;;;;;;5013932;28;20509;-65
2021/04/27 00:38:11;;;;;;;6.80;4.00;;;4.80;83.20;;;;;;5013296;28;20477;-65
2021/04/27 00:40:38;;;;;;;5.33;3.57;;;4.80;85.30;;;;;;5013358;28;20504;-65
2021/04/27 00:43:05;;;;;;;6.67;3.80;;;4.70;88.50;;;;;;5013208;28;20453;-65
2021/04/27 00:45:31;;;;;;;5.13;3.60;;;4.50;88.50;;;;;;5013444;28;20450;-66
2021/04/27 00:47:59;;;;;;;5.07;4.07;;;4.40;90.40;;;;;;5013174;28;20543;-65
2021/04/27 00:50:27;;;;;;;5.07;4.40;;;4.30;91.90;;;;;;5013403;28;20496;-65
2021/04/27 00:52:54;;;;;;;6.00;3.57;;;4.30;93.20;;;;;;5013026;28;20500;-67
2021/04/27 00:55:22;;;;;;;15.50;4.20;;;4.20;93.20;;;;;;5013526;28;20452;-65
2021/04/27 00:57:49;;;;;;;8.00;4.00;;;4.10;94.90;;;;;;5020522;28;20541;-66
2021/04/27 01:00:18;;;;;;;6.13;3.87;;;4.10;95.40;;;;;;5019916;28;20478;-67
2021/04/27 01:02:45;;;;;;;4.33;3.63;;;4.00;96.50;;;;;;5017927;28;20492;-65
2021/04/27 01:05:13;;;;;;;6.47;3.60;;;4.00;97.70;;;;;;5013516;28;20469;-65
2021/04/27 01:07:48;;;;;;;6.73;3.30;;;3.90;98.30;;;;;;5018116;28;20509;-67
2021/04/27 01:10:17;;;;;;;5.70;3.67;;;3.80;98.50;;;;;;5021135;28;20458;-67
2021/04/27 01:12:51;;;;;;;4.20;3.20;;;3.70;98.80;;;;;;5022238;28;20930;-66
2021/04/27 01:15:21;;;;;;;6.53;4.00;;;3.80;99.90;;;;;;5022421;28;20456;-67
2021/04/27 01:17:49;;;;;;;5.67;4.03;;;3.70;99.90;;;;;;5015773;28;20492;-66
2021/04/27 01:20:18;;;;;;;4.43;3.47;;;3.70;98.30;;;;;;5012615;28;20485;-65
2021/04/27 01:23:09;;;;;;;6.80;4.00;;;3.80;98.30;;;;;;5012535;28;20553;-65
2021/04/27 01:25:39;;;;;;;7.23;3.53;;;3.80;98.90;;;;;;5012859;28;20541;-66
2021/04/27 01:28:08;;;;;;;5.70;3.80;;;3.70;99.30;;;;;;5012986;28;20533;-66
2021/04/27 01:30:38;;;;;;;4.47;3.43;;;3.70;99.90;;;;;;5012478;28;20521;-67
2021/04/27 01:33:06;;;;;;;5.50;3.63;;;3.80;99.90;;;;;;5012467;28;20938;-65
2021/04/27 01:35:33;;;;;;;5.37;3.60;;;3.70;99.50;;;;;;5012373;28;20529;-66
2021/04/27 01:38:00;;;;;;;4.60;3.17;;;3.70;99.00;;;;;;5012412;28;20450;-66
2021/04/27 01:40:27;;;;;;;9.83;3.60;;;3.80;97.90;;;;;;5012743;28;20521;-67
2021/04/27 01:42:55;;;;;;;6.63;3.33;;;3.90;97.30;;;;;;5012244;28;20533;-66
2021/04/27 01:45:26;;;;;;;4.13;3.10;;;3.80;97.90;;;;;;5012085;28;20533;-67
2021/04/27 01:47:53;;;;;;;5.07;3.43;;;3.70;95.90;;;;;;5012282;28;20450;-68
2021/04/27 01:50:20;;;;;;;5.47;3.70;;;3.70;95.80;;;;;;5012224;28;20553;-67
2021/04/27 01:52:48;;;;;;;3.93;3.47;;;3.80;97.20;;;;;;5012213;28;20488;-66
2021/04/27 01:55:16;;;;;;;5.25;3.17;;;3.80;96.20;;;;;;5011407;28;20524;-66
2021/04/27 01:57:43;;;;;;;5.33;3.50;;;3.90;94.90;;;;;;5011941;28;20234;-67
2021/04/27 02:00:11;;;;;;;6.10;3.53;;;4.00;94.10;;;;;;5011833;28;20616;-64
2021/04/27 02:02:40;;;;;;;5.17;3.10;;;4.00;95.00;;;;;;5011819;28;20460;-66
2021/04/27 02:05:07;;;;;;;9.10;3.43;;;3.90;95.00;;;;;;5011755;28;20952;-65
2021/04/27 02:07:34;;;;;;;5.80;3.57;;;3.70;95.80;;;;;;5012086;28;20536;-64
2021/04/27 02:10:01;;;;;;;3.60;2.80;;;3.60;96.80;;;;;;5011748;28;20515;-65
2021/04/27 02:12:30;;;;;;;4.87;4.10;;;3.50;97.00;;;;;;5011022;28;20458;-66
2021/04/27 02:14:57;;;;;;;3.83;3.17;;;3.60;96.00;;;;;;5011392;28;20528;-66
2021/04/27 02:17:29;;;;;;;4.40;3.00;;;3.70;95.70;;;;;;5011691;28;20460;-66
2021/04/27 02:19:58;;;;;;;5.07;3.60;;;3.70;95.70;;;;;;5011444;28;20488;-68
2021/04/27 02:22:28;;;;;;;3.90;2.60;;;3.70;95.60;;;;;;5010858;28;20804;-67
2021/04/27 02:24:55;;;;;;;4.57;3.30;;;3.70;95.80;;;;;;5011576;28;20449;-66
2021/04/27 02:27:23;;;;;;;4.00;3.60;;;3.70;95.50;;;;;;5011521;28;20441;-68
2021/04/27 02:29:51;;;;;;;10.10;4.10;;;3.70;96.00;;;;;;5011475;28;20468;-68
2021/04/27 02:32:17;;;;;;;7.60;5.13;;;3.70;95.80;;;;;;5011337;28;20540;-66
2021/04/27 02:34:44;;;;;;;11.13;6.97;;;3.60;96.20;;;;;;5011220;28;20446;-65
2021/04/27 02:37:11;;;;;;;12.13;7.67;;;3.70;95.60;;;;;;5011551;28;20457;-66
2021/04/27 02:39:38;;;;;;;7.77;5.37;;;3.70;97.60;;;;;;5011269;28;20581;-65
2021/04/27 02:42:06;;;;;;;8.37;5.30;;;3.50;96.40;;;;;;5011337;28;20525;-67
2021/04/27 02:44:32;;;;;;;8.07;4.53;;;3.30;97.80;;;;;;5010904;28;20473;-65
2021/04/27 02:46:58;;;;;;;4.40;3.43;;;3.10;98.10;;;;;;5011192;28;20972;-67
2021/04/27 02:49:25;;;;;;;5.00;3.17;;;3.20;97.80;;;;;;5011128;28;20484;-66
2021/04/27 02:51:54;;;;;;;5.50;3.57;;;3.20;97.10;;;;;;5010959;28;20956;-67
2021/04/27 02:54:21;;;;;;;6.43;3.23;;;3.20;97.00;;;;;;5010951;28;20457;-66
2021/04/27 02:56:48;;;;;;;5.87;3.80;;;3.30;97.10;;;;;;5011116;28;20480;-65
2021/04/27 02:59:14;;;;;;;5.00;3.30;;;3.40;96.70;;;;;;5010712;28;20573;-65
2021/04/27 03:01:41;;;;;;;5.33;3.50;;;3.40;96.30;;;;;;5011349;28;20870;-67
2021/04/27 03:04:07;;;;;;;6.73;3.97;;;3.40;96.70;;;;;;5010886;28;20454;-66
2021/04/27 03:06:34;;;;;;;3.67;3.30;;;3.30;97.80;;;;;;5010604;28;20534;-66
2021/04/27 03:09:00;;;;;;;4.83;3.20;;;3.30;97.50;;;;;;5010442;28;20545;-66
2021/04/27 03:11:28;;;;;;;5.07;3.53;;;3.40;96.60;;;;;;5010494;28;21113;-66
2021/04/27 03:13:54;;;;;;;5.30;3.77;;;3.50;96.90;;;;;;5010297;28;20830;-67
2021/04/27 03:16:21;;;;;;;5.57;3.53;;;3.40;96.30;;;;;;5010582;28;20453;-66
2021/04/27 03:18:47;;;;;;;7.43;3.40;;;3.50;96.90;;;;;;5010517;28;20488;-66
2021/04/27 03:21:13;;;;;;;5.37;3.50;;;3.50;96.80;;;;;;5010596;28;20536;-65
2021/04/27 03:23:40;;;;;;;6.23;3.60;;;3.50;97.00;;;;;;5010143;28;20446;-65
2021/04/27 03:26:06;;;;;;;3.70;3.00;;;3.60;97.90;;;;;;5010475;28;20818;-67
2021/04/27 03:28:33;;;;;;;4.87;3.43;;;3.50;98.20;;;;;;5010353;28;20545;-65
2021/04/27 03:31:00;;;;;;;4.13;3.10;;;3.40;98.40;;;;;;5010803;28;20430;-66
2021/04/27 03:33:27;;;;;;;5.23;3.30;;;3.50;98.00;;;;;;5011550;28;20507;-66
2021/04/27 03:35:53;;;;;;;7.93;3.40;;;3.50;97.60;;;;;;5014122;28;20948;-65
2021/04/27 03:38:20;;;;;;;5.73;3.30;;;3.60;97.20;;;;;;5014093;28;20446;-66
2021/04/27 03:40:47;;;;;;;4.20;3.23;;;3.60;96.50;;;;;;5013780;28;20581;-67
2021/04/27 03:43:13;;;;;;;5.40;3.57;;;3.70;96.40;;;;;;5013741;28;20506;-66
2021/04/27 03:45:40;;;;;;;4.87;3.10;;;3.80;97.50;;;;;;5014103;28;20460;-67
2021/04/27 03:48:10;;;;;;;5.20;3.17;;;3.80;98.00;;;;;;5014025;28;20453;-64
2021/04/27 03:50:37;;;;;;;5.53;3.97;;;3.60;98.50;;;;;;5013655;28;20965;-64
2021/04/27 03:53:04;;;;;;;5.80;3.90;;;3.60;98.80;;;;;;5013486;28;20587;-64
2021/04/27 03:55:31;;;;;;;3.80;3.10;;;3.60;98.90;;;;;;5013426;28;20540;-64
2021/04/27 03:57:57;;;;;;;5.60;3.80;;;3.60;98.30;;;;;;5013923;28;20453;-66
2021/04/27 04:00:24;;;;;;;5.23;3.43;;;3.60;98.00;;;;;;5014021;28;20977;-66
2021/04/27 04:02:52;;;;;;;6.13;4.30;;;3.70;97.30;;;;;;5014103;28;20451;-65
2021/04/27 04:05:19;;;;;;;5.33;4.10;;;3.80;96.90;;;;;;5014514;28;20588;-65
2021/04/27 04:07:45;;;;;;;4.60;3.80;;;3.80;97.00;;;;;;5014056;28;20536;-65
2021/04/27 04:10:13;;;;;;;5.47;3.40;;;3.90;97.30;;;;;;5014031;28;20996;-66
2021/04/27 04:12:41;;;;;;;7.63;4.13;;;3.80;97.20;;;;;;5013726;28;20477;-67
2021/04/27 04:15:10;;;;;;;5.23;3.83;;;3.80;98.40;;;;;;5014024;28;20525;-65
2021/04/27 04:17:37;;;;;;;5.67;3.90;;;3.70;99.40;;;;;;5013773;28;21040;-68
2021/04/27 04:20:06;;;;;;;4.63;4.23;;;3.60;99.40;;;;;;5013392;28;20490;-67
2021/04/27 04:22:32;;;;;;;5.00;3.63;;;3.50;99.90;;;;;;5013211;28;20537;-67
2021/04/27 04:24:59;;;;;;;4.90;3.87;;;3.40;99.90;;;;;;5013592;28;20485;-66
2021/04/27 04:27:25;;;;;;;4.90;3.97;;;3.40;99.90;;;;;;5013492;28;20454;-66
2021/04/27 04:29:51;;;;;;;6.63;4.40;;;3.40;99.90;;;;;;5013894;28;20541;-66
2021/04/27 04:32:18;;;;;;;4.50;3.60;;;3.50;99.90;;;;;;5013273;28;20453;-67
2021/04/27 04:34:44;;;;;;;6.47;3.80;;;3.50;99.90;;;;;;5012733;28;20460;-66
2021/04/27 04:37:11;;;;;;;5.33;3.57;;;3.50;99.90;;;;;;5012893;28;20456;-67
2021/04/27 04:39:38;;;;;;;5.17;3.90;;;3.50;99.90;;;;;;5013014;28;20580;-66
2021/04/27 04:42:05;;;;;;;5.43;3.60;;;3.60;99.90;;;;;;5012844;28;21019;-67
2021/04/27 04:44:31;;;;;;;8.73;4.20;;;3.60;99.90;;;;;;5012735;28;20460;-65
2021/04/27 04:46:58;;;;;;;5.10;3.77;;;3.60;99.90;;;;;;5012716;28;20503;-65
2021/04/27 04:49:25;;;;;;;6.40;4.10;;;3.50;99.90;;;;;;5013125;28;20462;-66
2021/04/27 04:51:52;;;;;;;4.23;3.83;;;3.40;99.90;;;;;;5013174;28;20532;-68
2021/04/27 04:54:19;;;;;;;7.80;4.23;;;3.40;99.90;;;;;;5012955;28;20537;-67
2021/04/27 04:56:46;;;;;;;7.33;3.87;;;3.50;99.90;;;;;;5012965;28;20831;-65
2021/04/27 04:59:12;;;;;;;7.80;4.00;;;3.70;99.90;;;;;;5012828;28;20472;-64
2021/04/27 05:01:38;;;;;;;5.60;3.60;;;3.70;99.90;;;;;;5012864;28;20446;-65
2021/04/27 05:04:05;;;;;;;5.70;4.07;;;3.70;99.90;;;;;;5012705;28;20452;-65
2021/04/27 05:06:35;;;;;;;5.90;4.77;;;3.70;99.90;;;;;;5010523;28;20541;-67
2021/04/27 05:09:01;;;;;;;6.07;4.27;;;3.80;99.90;;;;;;5011635;28;20473;-65
2021/04/27 05:11:29;;;;;;;6.70;4.63;;;3.90;99.90;;;;;;5031757;28;20447;-66
2021/04/27 05:13:55;;;;;;;5.63;4.27;;;3.90;99.90;;;;;;5027787;28;20451;-67
2021/04/27 05:16:22;;;;;;;4.57;3.40;;;4.10;99.90;;;;;;5030718;28;21011;-68
2021/04/27 05:18:48;;;;;;;7.90;4.80;;;4.10;99.90;;;;;;5030017;28;20532;-67
2021/04/27 05:21:15;;;;;;;8.40;4.83;;;4.20;99.90;;;;;;5030533;28;20483;-64
2021/04/27 05:23:42;;;;;;;7.87;4.20;;;4.30;99.90;;;;;;5031031;28;20464;-66
2021/04/27 05:26:09;;;;;;;11.57;4.87;;;4.40;99.90;;;;;;5029730;28;20455;-67
2021/04/27 05:28:36;;;;;;;12.40;5.40;;;4.50;99.90;;;;;;5032083;28;20810;-68
2021/04/27 05:31:02;;;;;;;5.33;4.10;;;4.50;99.90;;;;;;5031976;28;20444;-66
2021/04/27 05:33:28;;;;;;;6.20;4.07;;;4.40;99.90;;;;;;5029017;28;20452;-66
2021/04/27 05:35:55;;;;;;;7.80;6.03;;;4.40;99.90;;;;;;5026340;28;20503;-67
2021/04/27 05:38:22;;;;;;;6.60;4.87;;;4.50;99.90;;;;;;5030597;28;20441;-66
2021/04/27 05:40:48;;;;;;;6.20;4.07;;;4.60;99.90;;;;;;5030326;28;20540;-68
2021/04/27 05:43:15;;;;;;;6.03;4.50;;;4.70;99.90;;;;;;5030232;28;20445;-67
2021/04/27 05:45:43;;;;;;;5.90;4.30;;;4.70;99.90;;;;;;5030240;28;20521;-67
2021/04/27 05:48:10;;;;;;;8.17;3.90;;;4.80;99.90;;;;;;5030328;28;20452;-68
2021/04/27 05:50:37;;;;;;;8.07;4.33;;;4.90;99.90;;;;;;5028561;28;20494;-67
2021/04/27 05:53:04;;;;;;;7.20;4.03;;;5.00;99.90;;;;;;5029083;28;20534;-66
2021/04/27 05:55:30;;;;;;;8.10;5.43;;;5.10;99.90;;;;;;5029368;28;20452;-65
2021/04/27 05:57:57;;;;;;;7.47;4.70;;;5.20;99.90;;;;;;5028536;28;20528;-66
2021/04/27 06:00:24;;;;;;;7.40;4.00;;;5.30;99.90;;;;;;5028655;28;20651;-66
2021/04/27 06:02:53;;;;;;;9.33;5.00;;;5.40;99.90;;;;;;5029787;28;20456;-66
2021/04/27 06:05:19;;;;;;;7.73;5.00;;;5.50;99.90;;;;;;5030218;28;20472;-66
2021/04/27 06:07:45;;;;;;;6.73;4.30;;;5.70;99.90;;;;;;5029807;28;20444;-66
2021/04/27 06:10:12;;;;;;;7.30;4.90;;;5.80;99.70;;;;;;5029922;28;20503;-66
2021/04/27 06:12:39;;;;;;;10.33;5.17;;;5.80;98.90;;;;;;5026779;28;20449;-66
2021/04/27 06:15:06;;;;;;;9.60;4.53;;;5.80;98.90;;;;;;5028623;28;20472;-68
2021/04/27 06:17:35;;;;;;;9.10;4.10;;;6.00;98.20;;;;;;5028438;28;20465;-67
2021/04/27 06:20:05;;;;;;;9.03;7.10;;;6.00;97.90;;;;;;5028710;28;20480;-67
2021/04/27 06:22:31;;;;;;;10.93;4.60;;;6.20;97.50;;;;;;5028741;28;20453;-68
2021/04/27 06:24:57;;;;;;;5.83;4.50;;;6.40;96.40;;;;;;5028464;28;20457;-67
2021/04/27 06:27:27;;;;;;;9.20;5.20;;;6.60;95.20;;;;;;5028501;28;20454;-67
2021/04/27 06:29:54;;;;;;;9.00;6.37;;;6.60;94.60;;;;;;5028587;28;20469;-68
2021/04/27 06:32:21;;;;;;;7.63;4.60;;;6.80;95.40;;;;;;5028644;28;20491;-67
2021/04/27 06:34:47;;;;;;;11.20;4.70;;;6.90;95.30;;;;;;5028107;28;20441;-66
2021/04/27 06:37:15;;;;;;;6.40;4.03;;;6.90;93.80;;;;;;5025029;28;20449;-66
2021/04/27 06:39:42;;;;;;;6.40;4.33;;;6.90;93.10;;;;;;5031442;28;20492;-68
2021/04/27 06:42:08;;;;;;;12.73;4.37;;;7.00;92.90;;;;;;5033367;28;20459;-68
2021/04/27 06:44:35;;;;;;;5.67;4.17;;;7.00;92.70;;;;;;5034046;28;20525;-65
2021/04/27 06:47:02;;;;;;;21.43;7.30;;;7.10;93.30;;;;;;5030717;28;20524;-66
2021/04/27 06:49:28;;;;;;;19.30;6.30;;;7.10;96.60;;;;;;5029170;28;20469;-67
2021/04/27 06:51:55;;;;;;;13.43;5.63;;;7.10;94.90;;;;;;5031705;28;20441;-65
2021/04/27 06:54:22;;;;;;;8.60;5.13;;;7.20;95.10;;;;;;5037595;28;20922;-67
2021/04/27 06:56:48;;;;;;;10.10;6.77;;;7.20;97.30;;;;;;5036689;28;20451;-69
2021/04/27 06:59:17;;;;;;;11.43;5.83;;;7.20;98.60;;;;;;5035901;28;20507;-69
2021/04/27 07:01:43;;;;;;;98.80;33.73;;;7.10;96.00;;;;;;5029535;28;20459;-66
2021/04/27 07:04:09;;;;;;;93.17;42.77;;;7.10;99.90;;;;;;5028173;28;20456;-67
2021/04/27 07:06:36;;;;;;;78.83;27.13;;;7.00;99.90;;;;;;5028272;28;20540;-68
2021/04/27 07:09:03;;;;;;;315.83;107.27;;;6.90;99.90;;;;;;5027867;28;20465;-68
2021/04/27 07:11:31;;;;;;;64.17;27.63;;;6.90;99.90;;;;;;5028549;28;20453;-69
2021/04/27 07:13:58;;;;;;;7.20;5.23;;;6.80;99.90;;;;;;5027544;28;20519;-67
2021/04/27 07:16:24;;;;;;;30.95;13.20;;;6.90;99.90;;;;;;5027836;28;20490;-67
2021/04/27 07:18:51;;;;;;;9.17;5.17;;;7.10;99.90;;;;;;5028138;28;20304;-68
2021/04/27 07:21:19;;;;;;;8.90;4.47;;;7.20;97.50;;;;;;5027961;28;20485;-67
2021/04/27 07:23:46;;;;;;;19.60;10.97;;;7.40;96.20;;;;;;5027531;28;20503;-68
2021/04/27 07:26:12;;;;;;;54.43;24.40;;;7.50;99.50;;;;;;5028263;28;20527;-67
2021/04/27 07:28:39;;;;;;;112.63;46.60;;;7.60;99.90;;;;;;5020939;28;20477;-70
2021/04/27 07:31:07;;;;;;;42.73;22.90;;;7.60;99.90;;;;;;5024064;28;20537;-69
2021/04/27 07:33:33;;;;;;;51.67;26.90;;;7.70;99.90;;;;;;5024845;28;21078;-71
2021/04/27 07:36:00;;;;;;;95.10;43.27;;;7.80;99.90;;;;;;5026365;28;20447;-69
2021/04/27 07:38:26;;;;;;;75.73;33.03;;;7.90;99.90;;;;;;5026925;28;21055;-71
2021/04/27 07:40:53;;;;;;;17.43;7.90;;;7.90;99.90;;;;;;5025020;28;20583;-72
2021/04/27 07:43:20;;;;;;;81.73;40.63;;;8.10;99.40;;;;;;5024864;28;21020;-71
2021/04/27 07:45:47;;;;;;;7.50;5.40;;;8.20;99.90;;;;;;5026339;28;20453;-69
2021/04/27 07:48:14;;;;;;;8.63;5.30;;;8.40;96.00;;;;;;5026273;28;20480;-72
2021/04/27 07:50:40;;;;;;;7.80;5.27;;;8.50;97.10;;;;;;5024934;28;20467;-71
2021/04/27 07:53:07;;;;;;;7.93;5.70;;;8.70;96.50;;;;;;5024803;28;20449;-69
2021/04/27 07:55:34;;;;;;;9.17;5.30;;;8.90;96.00;;;;;;5025599;28;20444;-70
2021/04/27 07:58:01;;;;;;;6.60;5.50;;;9.10;93.20;;;;;;5025300;28;20532;-69
2021/04/27 08:00:27;;;;;;;9.13;5.13;;;9.20;93.20;;;;;;5026139;28;20472;-69
2021/04/27 08:02:55;;;;;;;10.97;5.07;;;9.30;91.30;;;;;;5025498;28;20445;-70
2021/04/27 08:05:22;;;;;;;6.97;4.93;;;9.30;93.00;;;;;;5026098;28;20452;-68
2021/04/27 08:07:49;;;;;;;6.10;5.20;;;9.40;92.00;;;;;;5026667;28;20445;-69
2021/04/27 08:10:16;;;;;;;6.87;5.50;;;9.50;92.40;;;;;;5025909;28;20497;-67
2021/04/27 12:05:39;;;;;;;12.40;8.30;;;22.00;46.40;;;;;;5092976;27;20581;-68
2021/04/27 12:08:15;;;;;;;18.57;8.33;;;22.40;47.20;;;;;;5094475;28;20927;-68
2021/04/27 12:10:42;;;;;;;18.30;8.07;;;22.40;44.40;;;;;;5094337;28;20473;-67
2021/04/27 12:13:20;;;;;;;12.33;8.90;;;22.60;45.00;;;;;;5106947;28;20492;-68
2021/04/27 12:16:06;;;;;;;9.73;8.50;;;22.40;45.60;;;;;;5104529;28;20441;-68
2021/04/27 12:18:32;;;;;;;11.57;8.63;;;22.30;44.10;;;;;;5100234;28;20445;-71
2021/04/27 12:21:00;;;;;;;10.60;8.03;;;22.20;44.70;;;;;;5090707;28;20467;-72
2021/04/27 12:23:26;;;;;;;20.60;9.00;;;22.30;48.60;;;;;;5094389;28;20442;-68
2021/04/27 12:25:57;;;;;;;9.27;8.37;;;22.80;46.90;;;;;;5098985;28;20485;-69
2021/04/27 12:28:24;;;;;;;9.77;8.03;;;23.50;46.60;;;;;;5105879;28;21103;-68
2021/04/27 12:30:50;;;;;;;8.93;8.03;;;24.00;46.10;;;;;;5105682;28;20453;-67
2021/04/27 12:33:22;;;;;;;9.03;7.97;;;24.90;43.10;;;;;;5105442;28;20450;-68
2021/04/27 12:35:52;;;;;;;11.53;7.73;;;26.00;43.90;;;;;;5105471;28;20804;-68
2021/04/27 12:38:19;;;;;;;9.77;8.47;;;25.80;40.70;;;;;;5106621;28;20552;-68
2021/04/27 12:40:52;;;;;;;9.10;8.10;;;25.10;42.00;;;;;;5105363;28;20469;-68
2021/04/27 12:43:32;;;;;;;11.40;8.07;;;25.30;41.60;;;;;;5106443;28;20830;-68
2021/04/27 12:46:00;;;;;;;9.80;8.17;;;24.90;42.00;;;;;;5099095;28;20441;-68
2021/04/27 12:48:31;;;;;;;8.53;7.67;;;24.90;45.60;;;;;;5107846;28;20988;-68
2021/04/27 12:51:00;;;;;;;8.90;7.77;;;25.50;41.30;;;;;;5099349;28;20872;-68
2021/04/27 12:53:37;;;;;;;11.23;8.17;;;25.80;39.40;;;;;;5095102;28;20452;-68
2021/04/27 12:56:09;;;;;;;12.67;8.47;;;25.10;40.90;;;;;;5098321;28;20468;-68
2021/04/27 12:58:36;;;;;;;8.67;7.77;;;24.90;38.70;;;;;;5106052;28;20464;-68
2021/04/27 13:01:05;;;;;;;10.57;8.47;;;23.70;41.20;;;;;;5106408;28;20488;-69
2021/04/27 13:03:33;;;;;;;8.50;7.70;;;23.50;40.40;;;;;;5103393;28;20489;-69
2021/04/27 13:06:20;;;;;;;9.10;7.87;;;24.30;40.60;;;;;;5105281;28;20926;-69
2021/04/27 13:09:03;;;;;;;9.87;8.37;;;24.80;40.30;;;;;;5103806;28;20540;-69
2021/04/27 13:11:30;;;;;;;11.73;8.17;;;25.30;41.70;;;;;;5093778;28;20473;-69
2021/04/27 13:14:17;;;;;;;8.90;7.80;;;24.40;39.30;;;;;;5097240;28;20472;-69
2021/04/27 13:16:44;;;;;;;9.37;8.50;;;24.10;41.30;;;;;;5092841;28;20532;-69
2021/04/27 13:19:11;;;;;;;10.00;8.03;;;24.40;41.10;;;;;;5092851;28;20462;-69
2021/04/27 13:21:41;;;;;;;9.97;8.30;;;24.50;39.40;;;;;;5090974;28;20472;-69
2021/04/27 13:24:12;;;;;;;10.33;7.30;;;23.60;40.30;;;;;;5092094;28;20514;-69
2021/04/27 13:26:39;;;;;;;10.93;8.37;;;23.20;39.60;;;;;;5091711;28;20472;-69
2021/04/27 13:29:06;;;;;;;7.73;6.93;;;23.60;42.90;;;;;;5087456;28;20939;-69
2021/04/27 13:31:33;;;;;;;8.00;7.13;;;23.80;40.40;;;;;;5091463;28;21141;-70
2021/04/27 13:33:59;;;;;;;9.20;6.67;;;24.30;41.20;;;;;;5089363;28;20806;-67
2021/04/27 13:36:26;;;;;;;7.73;7.03;;;24.70;40.50;;;;;;5088652;28;20467;-68
2021/04/27 13:38:52;;;;;;;7.10;6.40;;;25.60;40.80;;;;;;5090051;28;20470;-68
2021/04/27 13:41:20;;;;;;;8.20;7.13;;;25.80;38.30;;;;;;5090380;28;20442;-69
2021/04/27 13:43:48;;;;;;;9.30;8.07;;;26.20;37.30;;;;;;5090875;28;20474;-69
2021/04/27 13:46:17;;;;;;;9.10;8.20;;;25.90;37.70;;;;;;5089839;28;20446;-68
2021/04/27 13:48:44;;;;;;;7.60;6.77;;;26.30;39.30;;;;;;5090873;28;20566;-69
2021/04/27 13:51:12;;;;;;;7.00;6.30;;;26.50;39.40;;;;;;5090425;28;20470;-68
2021/04/27 13:53:39;;;;;;;8.20;7.27;;;27.20;38.50;;;;;;5090595;28;20861;-69
2021/04/27 13:56:11;;;;;;;7.47;6.87;;;27.40;36.20;;;;;;5090221;28;20442;-69
2021/04/27 13:58:39;;;;;;;12.60;8.20;;;27.80;36.40;;;;;;5090737;28;20477;-68
2021/04/27 14:01:05;;;;;;;8.20;7.30;;;26.90;35.90;;;;;;5090471;28;21168;-68
2021/04/27 14:03:34;;;;;;;9.70;8.00;;;26.50;38.50;;;;;;5090420;28;21209;-69
2021/04/27 14:06:01;;;;;;;9.20;8.30;;;26.40;39.70;;;;;;5090276;28;20963;-69
2021/04/27 14:08:27;;;;;;;8.33;7.33;;;25.90;37.20;;;;;;5090550;28;20477;-69
2021/04/27 14:10:54;;;;;;;10.40;7.90;;;26.60;37.80;;;;;;5090808;28;20470;-69
2021/04/27 14:13:21;;;;;;;7.03;6.33;;;27.40;36.10;;;;;;5090771;28;20865;-69
2021/04/27 14:15:49;;;;;;;8.10;7.20;;;27.40;34.80;;;;;;5090689;28;20519;-69
2021/04/27 14:18:17;;;;;;;7.63;6.63;;;27.40;34.70;;;;;;5094122;28;20523;-69
2021/04/27 14:20:44;;;;;;;8.17;7.30;;;26.90;35.30;;;;;;5093893;28;20496;-69
2021/04/27 14:23:12;;;;;;;7.80;7.07;;;25.70;37.50;;;;;;5084499;28;20435;-68
2021/04/27 14:25:39;;;;;;;8.40;7.30;;;25.30;37.40;;;;;;5071283;28;20568;-68
2021/04/27 14:28:07;;;;;;;8.70;7.90;;;25.80;35.70;;;;;;5069604;28;20499;-68
2021/04/27 14:30:34;;;;;;;9.63;6.00;;;25.90;35.00;;;;;;5070337;28;20607;-68
2021/04/27 14:33:02;;;;;;;7.93;7.13;;;26.00;36.90;;;;;;5070089;28;20539;-68
2021/04/27 14:35:32;;;;;;;8.20;7.47;;;27.10;33.10;;;;;;5069719;28;20546;-69
2021/04/27 14:37:59;;;;;;;7.70;6.90;;;27.30;31.40;;;;;;5069942;28;20517;-69
2021/04/27 14:40:27;;;;;;;7.87;6.63;;;26.80;33.20;;;;;;5069304;28;20542;-68
2021/04/27 14:42:53;;;;;;;8.30;6.87;;;26.80;33.10;;;;;;5069340;28;20863;-68
2021/04/27 14:45:22;;;;;;;7.67;6.87;;;27.00;33.90;;;;;;5080632;28;21053;-68
2021/04/27 14:47:51;;;;;;;8.67;7.10;;;26.90;33.80;;;;;;5076564;28;20971;-68
2021/04/27 14:50:19;;;;;;;8.37;6.40;;;27.70;34.40;;;;;;5075916;28;20522;-68
2021/04/27 14:52:46;;;;;;;7.53;6.43;;;27.80;31.90;;;;;;5075604;28;20442;-68
2021/04/27 14:55:15;;;;;;;8.20;7.43;;;27.90;32.50;;;;;;5077465;28;20529;-68
2021/04/27 14:57:43;;;;;;;7.53;6.83;;;27.90;31.70;;;;;;5073887;28;20522;-68
2021/04/27 15:00:12;;;;;;;7.40;6.30;;;28.00;33.10;;;;;;5078507;28;20447;-68
2021/04/27 15:02:39;;;;;;;8.73;7.93;;;27.90;31.50;;;;;;5076586;28;20447;-68
2021/04/27 15:05:07;;;;;;;7.80;6.30;;;26.60;32.20;;;;;;5082773;28;21080;-67
2021/04/27 15:07:35;;;;;;;8.67;7.70;;;25.30;32.90;;;;;;5085027;28;20509;-68
2021/04/27 15:10:03;;;;;;;8.47;6.60;;;24.80;34.30;;;;;;5089861;28;20999;-69
2021/04/27 15:12:29;;;;;;;9.30;7.17;;;24.50;35.00;;;;;;5081028;28;20447;-68
2021/04/27 15:14:56;;;;;;;8.07;7.27;;;24.20;35.90;;;;;;5075743;28;20926;-69
2021/04/27 15:17:22;;;;;;;7.70;6.87;;;24.00;36.20;;;;;;5085875;28;20876;-69
2021/04/27 15:19:49;;;;;;;7.47;6.57;;;24.60;36.50;;;;;;5088193;28;20470;-69
2021/04/27 15:22:17;;;;;;;8.63;6.63;;;25.10;34.30;;;;;;5088317;28;20523;-68
2021/04/27 15:24:45;;;;;;;8.93;7.60;;;25.30;35.50;;;;;;5081480;28;20483;-69
2021/04/27 15:27:11;;;;;;;9.20;8.30;;;25.90;34.80;;;;;;5088869;28;20515;-69
2021/04/27 15:29:39;;;;;;;9.17;7.17;;;26.10;34.90;;;;;;5088939;28;20539;-69
2021/04/27 15:32:06;;;;;;;8.03;7.10;;;26.40;33.50;;;;;;5088986;28;20493;-69
2021/04/27 15:34:32;;;;;;;8.10;7.20;;;26.40;31.30;;;;;;5087654;28;20438;-69
2021/04/27 15:37:00;;;;;;;7.87;7.10;;;26.50;32.40;;;;;;5083589;28;20986;-68
2021/04/27 15:39:27;;;;;;;8.37;7.20;;;25.90;31.30;;;;;;5077530;28;20848;-68
2021/04/27 15:41:55;;;;;;;7.80;7.00;;;24.90;32.90;;;;;;5085181;28;20466;-68
2021/04/27 15:44:21;;;;;;;8.97;7.43;;;24.50;33.40;;;;;;5085102;28;20807;-70
2021/04/27 15:46:48;;;;;;;10.87;7.50;;;24.70;33.70;;;;;;5078368;28;20570;-70
2021/04/27 15:49:15;;;;;;;7.40;6.70;;;25.20;33.30;;;;;;5079270;28;20452;-70
2021/04/27 15:51:43;;;;;;;7.90;7.10;;;25.20;32.80;;;;;;5080158;28;20530;-70
2021/04/27 15:54:10;;;;;;;7.33;5.90;;;24.70;32.50;;;;;;5086534;28;20522;-68
2021/04/27 15:56:38;;;;;;;7.53;6.83;;;23.80;34.40;;;;;;5079967;28;20772;-68
2021/04/27 15:59:06;;;;;;;7.73;6.90;;;23.20;35.40;;;;;;5087581;28;20450;-69
2021/04/27 16:01:32;;;;;;;9.20;7.20;;;23.20;34.90;;;;;;5083331;28;20489;-69
2021/04/27 16:03:59;;;;;;;8.10;6.83;;;23.10;34.70;;;;;;5081095;28;20560;-69
2021/04/27 16:06:26;;;;;;;7.63;6.77;;;22.80;34.50;;;;;;5087111;28;21015;-68
2021/04/27 16:08:55;;;;;;;8.70;6.50;;;22.20;34.50;;;;;;5087288;28;20525;-68
2021/04/27 16:11:21;;;;;;;6.33;5.70;;;22.10;34.90;;;;;;5087116;28;20472;-68
2021/04/27 16:13:49;;;;;;;9.73;6.27;;;22.20;36.20;;;;;;5085635;28;21141;-68
2021/04/27 16:16:17;;;;;;;6.90;6.30;;;22.70;34.90;;;;;;5086680;28;20517;-68
2021/04/27 16:18:43;;;;;;;9.27;6.03;;;22.30;33.70;;;;;;5086530;28;21128;-68
2021/04/27 16:21:10;;;;;;;7.33;6.10;;;21.90;34.80;;;;;;5087645;28;20529;-67
2021/04/27 16:23:36;;;;;;;9.67;7.20;;;21.90;36.00;;;;;;5086159;28;20444;-68
2021/04/27 16:26:03;;;;;;;8.30;6.73;;;21.80;35.30;;;;;;5087720;28;20478;-68
2021/04/27 16:28:29;;;;;;;7.00;6.30;;;21.80;34.90;;;;;;5077859;28;20483;-68
2021/04/27 16:30:56;;;;;;;6.80;6.10;;;21.60;36.10;;;;;;5067562;28;21111;-68
2021/04/27 16:33:23;;;;;;;7.67;6.97;;;21.20;38.90;;;;;;5068558;28;20534;-68
2021/04/27 16:35:50;;;;;;;7.80;7.00;;;21.20;37.30;;;;;;5087476;28;20913;-68
2021/04/27 16:38:16;;;;;;;7.00;6.30;;;21.00;36.80;;;;;;5088441;28;21169;-68
2021/04/27 16:40:42;;;;;;;7.63;6.33;;;20.90;36.30;;;;;;5081076;28;20538;-68
2021/04/27 16:43:10;;;;;;;10.33;6.20;;;20.70;36.90;;;;;;5086819;28;20521;-68
2021/04/27 16:45:37;;;;;;;6.93;6.20;;;20.60;36.60;;;;;;5076868;28;20479;-67